Time;durP1;ratioP1;P1;durP2;ratioP2;P2;SDS_P1;SDS_P2;PMS_P1;PMS_P2;Temp;Humidity;BMP_temperature;BMP_pressure;BME280_temperature;BME280_humidity;BME280_pressure;Samples;Min_cycle;Max_cycle;Signal;HPM_P1;HPM_P2
2022/03/03 00:00:33;;;;;;;32.10;19.03;;;;;;;-144.19;100.00;78867.16;6147957;23;20018;-86
2022/03/03 00:03:00;;;;;;;33.15;19.70;;;;;;;-144.19;100.00;78851.41;6157300;23;20304;-88
2022/03/03 00:05:26;;;;;;;30.30;17.85;;;;;;;-144.19;100.00;78859.28;6131716;23;20025;-88
2022/03/03 00:07:53;;;;;;;33.47;18.30;;;;;;;-144.19;100.00;78879.00;6131286;23;20018;-87
2022/03/03 00:10:19;;;;;;;31.97;18.93;;;;;;;-144.19;100.00;78896.72;6131414;23;20018;-84
2022/03/03 00:12:45;;;;;;;34.97;19.07;;;;;;;-144.19;100.00;78892.78;6157678;23;20315;-87
2022/03/03 00:15:12;;;;;;;31.15;18.75;;;;;;;-144.19;100.00;78875.06;6131562;23;20417;-86
2022/03/03 00:17:38;;;;;;;34.40;18.92;;;;;;;-144.19;100.00;78906.56;6156987;23;20018;-86
2022/03/03 00:20:05;;;;;;;30.30;19.17;;;;;;;-144.19;100.00;78920.34;6130980;23;20093;-88
2022/03/03 00:22:32;;;;;;;34.28;19.70;;;;;;;-144.19;100.00;78922.31;6132567;23;20284;-86
2022/03/03 00:24:58;;;;;;;31.30;18.60;;;;;;;-144.19;100.00;78928.22;6133793;23;20044;-86
2022/03/03 00:27:25;;;;;;;33.35;19.67;;;;;;;-144.19;100.00;78922.31;6158059;23;20265;-88
2022/03/03 00:29:52;;;;;;;32.23;19.30;;;;;;;-144.19;100.00;78879.00;6159416;23;20025;-88
2022/03/03 00:32:19;;;;;;;25.92;17.42;;;;;;;-144.19;100.00;78906.56;6158867;23;20018;-87
2022/03/03 00:34:46;;;;;;;31.20;18.77;;;;;;;-144.19;100.00;78922.31;6132975;23;20076;-85
2022/03/03 00:37:12;;;;;;;31.90;19.20;;;;;;;-144.19;100.00;78918.38;6132591;23;20076;-87
2022/03/03 00:39:39;;;;;;;31.93;18.57;;;;;;;-144.19;100.00;78910.50;6133475;23;20036;-86
2022/03/03 00:42:05;;;;;;;32.63;19.58;;;;;;;-144.19;100.00;78890.81;6157711;23;20685;-87
2022/03/03 00:44:32;;;;;;;28.77;18.88;;;;;;;-144.19;100.00;78882.94;6161511;23;20025;-89
2022/03/03 00:46:58;;;;;;;36.72;20.23;;;;;;;-144.19;100.00;78886.88;6159502;23;20533;-86
2022/03/03 00:49:25;;;;;;;30.75;18.48;;;;;;;-144.19;100.00;78886.88;6135477;23;20069;-87
2022/03/03 00:51:51;;;;;;;34.13;19.77;;;;;;;-144.19;100.00;78871.13;6160829;23;20019;-85
2022/03/03 00:54:18;;;;;;;27.57;17.27;;;;;;;-144.19;100.00;78886.88;6161248;23;20077;-86
2022/03/03 00:56:44;;;;;;;30.27;18.40;;;;;;;-144.19;100.00;78890.81;6135948;23;20312;-87
2022/03/03 00:59:11;;;;;;;30.05;17.60;;;;;;;-144.19;100.00;78880.97;6161304;23;20781;-84
2022/03/03 01:01:37;;;;;;;33.00;18.60;;;;;;;-144.19;100.00;78875.06;6135150;23;20024;-84
2022/03/03 01:04:04;;;;;;;31.92;17.45;;;;;;;-144.19;100.00;78875.06;6161191;23;20025;-86
2022/03/03 01:06:30;;;;;;;30.93;20.00;;;;;;;-144.19;100.00;78886.88;6160184;23;20541;-85
2022/03/03 01:08:57;;;;;;;33.97;18.37;;;;;;;-144.19;100.00;78890.81;6136091;23;20348;-85
2022/03/03 01:11:23;;;;;;;28.02;17.80;;;;;;;-144.19;100.00;78916.41;6134544;23;20024;-86
2022/03/03 01:13:50;;;;;;;32.13;18.40;;;;;;;-144.19;100.00;78918.38;6134015;23;20100;-88
2022/03/03 01:16:16;;;;;;;24.45;14.43;;;;;;;-144.19;100.00;78926.25;6134135;23;20057;-87
2022/03/03 01:18:43;;;;;;;33.40;19.33;;;;;;;-144.19;100.00;78926.25;6160494;23;20386;-87
2022/03/03 01:21:09;;;;;;;31.38;18.10;;;;;;;-144.19;100.00;78930.19;6133837;23;20044;-85
2022/03/03 01:23:36;;;;;;;29.80;16.65;;;;;;;-144.19;100.00;78934.13;6160265;23;20031;-88
2022/03/03 01:26:02;;;;;;;27.45;15.63;;;;;;;-144.19;100.00;78918.38;6161329;23;20100;-86
2022/03/03 01:28:29;;;;;;;27.33;16.48;;;;;;;-144.19;100.00;78928.22;6141725;23;20096;-88
2022/03/03 01:30:55;;;;;;;27.00;16.23;;;;;;;-144.19;100.00;78940.03;6171610;23;20044;-89
2022/03/03 01:33:22;;;;;;;30.45;16.58;;;;;;;-144.19;100.00;78936.09;6139436;23;20241;-89
2022/03/03 01:35:48;;;;;;;27.60;17.42;;;;;;;-144.19;100.00;78934.13;6139801;23;20025;-88
2022/03/03 01:38:14;;;;;;;30.30;16.63;;;;;;;-144.19;100.00;78932.16;6139374;23;20036;-88
2022/03/03 01:40:41;;;;;;;28.90;16.90;;;;;;;-144.19;100.00;78930.19;6164961;23;20303;-89
2022/03/03 01:43:07;;;;;;;25.40;16.35;;;;;;;-144.19;100.00;78938.06;6163723;23;20028;-88
2022/03/03 01:45:34;;;;;;;33.60;16.77;;;;;;;-144.19;100.00;78910.50;6138142;23;20112;-86
2022/03/03 01:48:00;;;;;;;29.98;17.08;;;;;;;-144.19;100.00;78918.38;6163488;23;20018;-84
2022/03/03 01:50:27;;;;;;;27.77;16.08;;;;;;;-144.19;100.00;78922.31;6162303;23;20022;-88
2022/03/03 01:52:54;;;;;;;27.55;16.55;;;;;;;-144.19;100.00;78922.31;6136203;23;20022;-87
2022/03/03 01:55:21;;;;;;;25.98;16.83;;;;;;;-144.19;100.00;78945.94;6163047;23;20017;-89
2022/03/03 01:57:49;;;;;;;28.67;17.02;;;;;;;-144.19;100.00;78957.78;6135227;23;20100;-87
2022/03/03 02:00:16;;;;;;;28.00;16.83;;;;;;;-144.19;100.00;78926.25;6133821;23;20017;-86
2022/03/03 02:02:43;;;;;;;28.85;16.25;;;;;;;-144.19;100.00;78934.13;6160753;23;20021;-87
2022/03/03 02:05:09;;;;;;;26.65;16.35;;;;;;;-144.19;100.00;78949.91;6134232;23;20474;-86
2022/03/03 02:07:36;;;;;;;27.17;15.93;;;;;;;-144.19;100.00;78969.59;6134376;23;20029;-88
2022/03/03 02:10:04;;;;;;;25.95;16.33;;;;;;;-144.19;100.00;78953.84;6133612;23;20032;-87
2022/03/03 02:12:30;;;;;;;30.10;16.85;;;;;;;-144.19;100.00;78922.31;6158140;23;20069;-89
2022/03/03 02:14:57;;;;;;;30.55;16.92;;;;;;;-144.19;100.00;78920.34;6159786;23;20366;-86
2022/03/03 02:17:24;;;;;;;33.25;18.02;;;;;;;-144.19;100.00;78906.56;6134467;23;20525;-89
2022/03/03 02:19:51;;;;;;;27.92;16.52;;;;;;;-144.19;100.00;78902.63;6134241;23;20025;-88
2022/03/03 02:22:17;;;;;;;29.98;17.75;;;;;;;-144.19;100.00;78920.34;6159708;23;20018;-87
2022/03/03 02:24:43;;;;;;;27.33;17.42;;;;;;;-144.19;100.00;78947.94;6135062;23;20101;-87
2022/03/03 02:27:10;;;;;;;31.70;16.48;;;;;;;-144.19;100.00;78951.88;6133215;23;20018;-86
2022/03/03 02:29:37;;;;;;;20.83;13.05;;;;;;;-144.19;100.00;78945.94;6133174;23;20415;-85
2022/03/03 02:32:05;;;;;;;29.35;16.02;;;;;;;-144.19;100.00;78944.00;6158405;23;20044;-87
2022/03/03 02:34:32;;;;;;;28.23;15.07;;;;;;;-144.19;100.00;78922.31;6131931;23;20024;-87
2022/03/03 02:36:58;;;;;;;;;;;;;;;-144.19;100.00;78914.44;6132530;23;20108;-86
2022/03/03 02:39:25;;;;;;;28.10;15.90;;;;;;;-144.19;100.00;78912.47;6155834;23;19997;-87
2022/03/03 02:41:51;;;;;;;32.30;16.48;;;;;;;-144.19;100.00;78922.31;6156173;23;20026;-86
2022/03/03 02:44:18;;;;;;;28.75;16.90;;;;;;;-144.19;100.00;78942.00;6158921;23;20101;-85
2022/03/03 02:46:44;;;;;;;26.83;16.38;;;;;;;-144.19;100.00;78906.56;6133331;23;20101;-85
2022/03/03 02:49:11;;;;;;;27.17;16.40;;;;;;;-144.19;100.00;78896.72;6133138;23;20021;-85
2022/03/03 02:51:37;;;;;;;28.38;16.35;;;;;;;-144.19;100.00;78882.94;6133104;23;20454;-88
2022/03/03 02:54:04;;;;;;;27.40;17.08;;;;;;;-144.19;100.00;78873.09;6160302;23;20021;-87
2022/03/03 02:56:30;;;;;;;30.20;17.05;;;;;;;-144.19;100.00;78904.59;6132648;23;20028;-84
2022/03/03 02:58:57;;;;;;;30.13;15.70;;;;;;;-144.19;100.00;78938.06;6132694;23;20096;-87
2022/03/03 03:01:23;;;;;;;28.63;16.30;;;;;;;-144.19;100.00;78949.91;6159007;23;20399;-88
2022/03/03 03:03:50;;;;;;;29.38;17.35;;;;;;;-144.19;100.00;78949.91;6133067;23;20303;-87
2022/03/03 03:06:16;;;;;;;32.57;17.50;;;;;;;-144.19;100.00;78955.81;6158121;23;20450;-84
2022/03/03 03:08:43;;;;;;;27.27;16.50;;;;;;;-144.19;100.00;78973.53;6130949;23;20263;-85
2022/03/03 03:11:09;;;;;;;26.83;16.05;;;;;;;-144.19;100.00;78967.63;6132695;23;20543;-87
2022/03/03 03:13:36;;;;;;;24.80;15.30;;;;;;;-144.19;100.00;78977.47;6158581;23;20025;-89
2022/03/03 03:16:03;;;;;;;28.05;17.25;;;;;;;-144.19;100.00;78973.53;6159164;23;20244;-87
2022/03/03 03:18:29;;;;;;;30.95;17.25;;;;;;;-144.19;100.00;78963.69;6133342;23;20044;-87
2022/03/03 03:20:56;;;;;;;28.05;16.88;;;;;;;-144.19;100.00;78957.78;6132726;23;20018;-86
2022/03/03 03:23:23;;;;;;;30.33;16.77;;;;;;;-144.19;100.00;78993.22;6160117;23;20077;-85
2022/03/03 03:25:50;;;;;;;27.10;16.40;;;;;;;-144.19;100.00;78981.41;6149420;23;20028;-88
2022/03/03 03:28:18;;;;;;;29.38;17.05;;;;;;;-144.19;100.00;78969.59;6137332;23;20597;-88
2022/03/03 03:30:46;;;;;;;34.55;18.30;;;;;;;-144.19;100.00;78975.50;6135722;23;20492;-87
2022/03/03 03:33:12;;;;;;;30.73;16.90;;;;;;;-144.19;100.00;78963.69;6134770;23;20033;-89
2022/03/03 03:35:39;;;;;;;31.38;17.58;;;;;;;-144.19;100.00;78969.59;6135096;23;20022;-90
2022/03/03 03:38:06;;;;;;;32.78;18.70;;;;;;;-144.19;100.00;78977.47;6135865;23;20077;-90
2022/03/03 03:40:33;;;;;;;30.92;18.92;;;;;;;-144.19;100.00;78969.59;6134278;23;20022;-88
2022/03/03 03:42:59;;;;;;;34.58;19.42;;;;;;;-144.19;100.00;78969.59;6134148;23;20656;-88
2022/03/03 03:45:26;;;;;;;29.58;17.52;;;;;;;-144.19;100.00;78981.41;6158838;23;20048;-89
2022/03/03 03:47:52;;;;;;;29.05;19.17;;;;;;;-144.19;100.00;78965.66;6133919;23;20025;-86
2022/03/03 03:50:19;;;;;;;33.92;19.75;;;;;;;-144.19;100.00;78957.78;6133180;23;20025;-89
2022/03/03 03:52:45;;;;;;;29.63;18.58;;;;;;;-144.19;100.00;78949.91;6157891;23;20018;-89
2022/03/03 03:55:12;;;;;;;31.73;19.73;;;;;;;-144.19;100.00;78953.84;6131772;23;20031;-86
2022/03/03 03:57:39;;;;;;;29.98;18.63;;;;;;;-144.19;100.00;78949.91;6133174;23;20021;-88
2022/03/03 04:00:09;;;;;;;32.15;19.67;;;;;;;-144.19;100.00;78938.06;6159105;23;20021;-90
2022/03/03 04:02:36;;;;;;;34.83;20.95;;;;;;;-144.19;100.00;78930.19;6157765;23;20021;-87
2022/03/03 04:05:03;;;;;;;35.50;20.73;;;;;;;-144.19;100.00;78894.75;6133267;23;20029;-87
2022/03/03 04:07:30;;;;;;;36.85;20.83;;;;;;;-144.19;100.00;78886.88;6157104;23;20018;-87
2022/03/03 04:09:56;;;;;;;29.92;19.20;;;;;;;-144.19;100.00;78882.94;6131679;23;20136;-86
2022/03/03 04:12:22;;;;;;;32.57;21.20;;;;;;;-144.19;100.00;78877.03;6130968;23;20458;-85
2022/03/03 04:14:49;;;;;;;31.63;21.33;;;;;;;-144.19;100.00;78861.25;6131767;23;20249;-88
2022/03/03 04:17:15;;;;;;;33.13;20.70;;;;;;;-144.19;100.00;78859.28;6131916;23;20249;-88
2022/03/03 04:19:42;;;;;;;38.80;20.33;;;;;;;-144.19;100.00;78853.38;6157589;23;20245;-89
2022/03/03 04:22:08;;;;;;;32.17;20.23;;;;;;;-144.19;100.00;78835.66;6156471;23;20028;-89
2022/03/03 04:24:34;;;;;;;31.90;19.88;;;;;;;-144.19;100.00;78849.44;6131024;23;20101;-86
2022/03/03 04:27:01;;;;;;;33.90;20.90;;;;;;;-144.19;100.00;78873.09;6132214;23;20028;-87
2022/03/03 04:29:27;;;;;;;30.58;20.33;;;;;;;-144.19;100.00;78894.75;6156419;23;20032;-88
2022/03/03 04:31:54;;;;;;;30.42;20.33;;;;;;;-144.19;100.00;78914.44;6130005;23;20021;-86
2022/03/03 04:34:20;;;;;;;28.52;18.63;;;;;;;-144.19;100.00;78928.22;6129427;23;20776;-86
2022/03/03 04:36:47;;;;;;;30.00;19.33;;;;;;;-144.19;100.00;78934.13;6130580;23;20033;-87
2022/03/03 04:39:14;;;;;;;31.00;19.63;;;;;;;-144.19;100.00;78910.50;6130045;23;20028;-86
2022/03/03 04:41:41;;;;;;;30.15;19.13;;;;;;;-144.19;100.00;78898.69;6129560;23;20017;-86
2022/03/03 04:44:07;;;;;;;33.25;20.15;;;;;;;-144.19;100.00;78890.81;6129183;23;20021;-87
2022/03/03 04:46:34;;;;;;;31.20;19.30;;;;;;;-144.19;100.00;78882.94;6128841;23;20085;-87
2022/03/03 04:49:01;;;;;;;32.22;20.75;;;;;;;-144.19;100.00;78898.69;6129144;23;20142;-87
2022/03/03 04:51:29;;;;;;;37.50;21.02;;;;;;;-144.19;100.00;78908.53;6155498;23;20034;-86
2022/03/03 04:53:56;;;;;;;35.67;22.15;;;;;;;-144.19;100.00;78914.44;6154011;23;20331;-85
2022/03/03 04:56:23;;;;;;;33.92;20.90;;;;;;;-144.19;100.00;78906.56;6155296;23;20104;-87
2022/03/03 04:58:55;;;;;;;34.70;21.30;;;;;;;-144.19;100.00;78890.81;6129017;23;20100;-89
2022/03/03 05:01:22;;;;;;;33.75;21.52;;;;;;;-144.19;100.00;78896.72;6128566;23;20032;-88
2022/03/03 05:03:48;;;;;;;30.45;20.00;;;;;;;-144.19;100.00;78890.81;6129843;23;20084;-87
2022/03/03 05:06:17;;;;;;;24.33;16.10;;;;;;;-144.19;100.00;78914.44;6129107;23;20021;-85
2022/03/03 05:08:44;;;;;;;31.27;19.48;;;;;;;-144.19;100.00;78922.31;6129064;23;20053;-87
2022/03/03 05:11:11;;;;;;;33.83;20.30;;;;;;;-144.19;100.00;78936.09;6153204;23;20464;-86
2022/03/03 05:13:37;;;;;;;34.53;22.08;;;;;;;-144.19;100.00;78920.34;6128113;23;20026;-86
2022/03/03 05:16:04;;;;;;;28.73;19.00;;;;;;;-144.19;100.00;78930.19;6155590;23;20100;-87
2022/03/03 05:18:31;;;;;;;31.10;20.63;;;;;;;-144.19;100.00;78922.31;6153425;23;20097;-87
2022/03/03 05:20:57;;;;;;;31.45;18.77;;;;;;;-144.19;100.00;78928.22;6162005;23;20025;-89
2022/03/03 05:23:24;;;;;;;32.45;20.08;;;;;;;-144.19;100.00;78914.44;6133727;23;20093;-88
2022/03/03 05:25:50;;;;;;;35.35;21.45;;;;;;;-144.19;100.00;78910.50;6131373;23;20553;-88
2022/03/03 05:28:17;;;;;;;31.25;20.02;;;;;;;-144.19;100.00;78926.25;6130655;23;20549;-87
2022/03/03 05:30:43;;;;;;;32.08;20.17;;;;;;;-144.19;100.00;78947.94;6131354;23;20025;-89
2022/03/03 05:33:10;;;;;;;32.28;20.17;;;;;;;-144.19;100.00;78963.69;6130533;23;20056;-88
2022/03/03 05:35:39;;;;;;;29.73;19.63;;;;;;;-144.19;100.00;78965.66;6130121;23;20021;-89
2022/03/03 05:38:05;;;;;;;36.78;20.77;;;;;;;-144.19;100.00;78981.41;6155152;23;20032;-87
2022/03/03 05:40:32;;;;;;;29.45;19.48;;;;;;;-144.19;100.00;78977.47;6156595;23;20025;-90
2022/03/03 05:42:58;;;;;;;34.63;22.10;;;;;;;-144.19;100.00;78977.47;6155574;23;20032;-87
2022/03/03 05:45:24;;;;;;;32.60;20.13;;;;;;;-144.19;100.00;78989.28;6130005;23;20022;-86
2022/03/03 05:47:52;;;;;;;38.05;22.88;;;;;;;-144.19;100.00;78979.44;6129532;23;20031;-86
2022/03/03 05:50:18;;;;;;;;;;;;;;;-144.19;100.00;78985.34;6129761;23;20407;-88
2022/03/03 05:52:44;;;;;;;32.05;19.50;;;;;;;-144.19;100.00;78985.34;6129620;23;19916;-88
2022/03/03 05:55:11;;;;;;;27.02;15.68;;;;;;;-144.19;100.00;78979.44;6153593;23;20026;-87
2022/03/03 05:57:45;;;;;;;30.80;19.85;;;;;;;-144.19;100.00;78981.41;6155551;23;20104;-89
2022/03/03 06:00:16;;;;;;;32.20;21.13;;;;;;;-144.19;100.00;78969.59;6153432;23;20036;-85
2022/03/03 06:02:49;;;;;;;33.80;20.52;;;;;;;-144.19;100.00;78945.94;6133334;23;20048;-88
2022/03/03 06:05:23;;;;;;;34.35;21.55;;;;;;;-144.19;100.00;78945.94;6129300;23;20025;-88
2022/03/03 06:07:52;;;;;;;34.28;21.13;;;;;;;-144.19;100.00;78930.19;6129504;23;20104;-87
2022/03/03 06:10:22;;;;;;;34.20;22.40;;;;;;;-144.19;100.00;78914.44;6127013;23;20040;-86
2022/03/03 06:12:54;;;;;;;36.30;22.80;;;;;;;-144.19;100.00;78904.59;6127086;23;20092;-86
2022/03/03 06:15:25;;;;;;;37.13;22.02;;;;;;;-144.19;100.00;78906.56;6154269;23;20021;-88
2022/03/03 06:17:54;;;;;;;30.98;21.30;;;;;;;-144.19;100.00;78906.56;6129710;23;20069;-87
2022/03/03 06:20:23;;;;;;;34.47;20.77;;;;;;;-144.19;100.00;78938.06;6156080;23;20027;-87
2022/03/03 06:22:49;;;;;;;34.58;21.40;;;;;;;-144.19;100.00;78965.66;6156100;23;20350;-86
2022/03/03 06:25:16;;;;;;;33.53;21.42;;;;;;;-144.19;100.00;78983.38;6131524;23;20068;-87
2022/03/03 06:27:43;;;;;;;38.35;22.75;;;;;;;-144.19;100.00;78977.47;6131826;23;20032;-86
2022/03/03 06:30:09;;;;;;;36.70;22.17;;;;;;;-144.19;100.00;78969.59;6133285;23;20517;-85
2022/03/03 06:32:36;;;;;;;34.97;21.95;;;;;;;-144.19;100.00;78963.69;6131385;23;20100;-89
2022/03/03 06:35:03;;;;;;;32.50;21.02;;;;;;;-144.19;100.00;78955.81;6131628;23;20026;-85
2022/03/03 06:37:29;;;;;;;;;;;;;;;-144.19;100.00;78949.91;6158759;23;20361;-87
2022/03/03 06:39:56;;;;;;;38.80;22.17;;;;;;;-144.19;100.00;78928.22;6158628;23;19923;-86
2022/03/03 06:42:23;;;;;;;36.35;22.60;;;;;;;-144.19;100.00;78890.81;6132042;23;20036;-87
2022/03/03 06:44:49;;;;;;;34.83;23.00;;;;;;;-144.19;100.00;78882.94;6131595;23;20018;-87
2022/03/03 06:47:16;;;;;;;34.50;22.35;;;;;;;-144.19;100.00;78882.94;6132916;23;20245;-87
2022/03/03 06:49:42;;;;;;;39.67;23.33;;;;;;;-144.19;100.00;78888.84;6129565;23;20103;-88
2022/03/03 06:52:15;;;;;;;36.88;21.13;;;;;;;-144.19;100.00;78875.06;6155509;23;20022;-87
2022/03/03 06:54:51;;;;;;;35.45;21.95;;;;;;;-144.19;100.00;78877.03;6155625;23;20435;-85
2022/03/03 06:57:22;;;;;;;35.33;22.65;;;;;;;-144.19;100.00;78869.13;6154517;23;20021;-86
2022/03/03 06:59:52;;;;;;;34.50;21.35;;;;;;;-144.19;100.00;78863.22;6155254;23;20104;-87
2022/03/03 07:02:20;;;;;;;37.05;22.45;;;;;;;-144.19;100.00;78863.22;6154309;23;20021;-86
2022/03/03 07:04:47;;;;;;;34.03;22.58;;;;;;;-144.19;100.00;78863.22;6156075;23;20022;-87
2022/03/03 07:07:14;;;;;;;37.53;22.88;;;;;;;-144.19;100.00;78857.31;6130455;23;20118;-86
2022/03/03 07:09:41;;;;;;;26.45;16.92;;;;;;;-144.19;100.00;78859.28;6132288;23;20096;-89
2022/03/03 07:12:08;;;;;;;32.75;21.48;;;;;;;-144.19;100.00;78847.47;6140605;23;20105;-87
2022/03/03 07:14:34;;;;;;;39.13;22.52;;;;;;;-144.19;100.00;78843.53;6132236;23;20039;-85
2022/03/03 07:17:04;;;;;;;44.28;23.98;;;;;;;-144.19;100.00;78841.56;6131564;23;20035;-85
2022/03/03 07:19:37;;;;;;;35.75;22.20;;;;;;;-144.19;100.00;78825.81;6170954;23;20077;-89
2022/03/03 07:22:19;;;;;;;35.78;22.05;;;;;;;-144.19;100.00;78812.03;6135789;23;20013;-87
2022/03/03 07:24:59;;;;;;;39.28;23.38;;;;;;;-144.19;100.00;78804.16;6133274;23;20461;-88
2022/03/03 07:27:26;;;;;;;35.42;22.63;;;;;;;-144.19;100.00;78792.34;6134491;23;20076;-89
2022/03/03 07:29:59;;;;;;;44.95;24.85;;;;;;;-144.19;100.00;78784.44;6155542;23;20088;-87
2022/03/03 07:32:58;;;;;;;33.65;21.50;;;;;;;-144.19;100.00;78784.44;6157659;23;20017;-89
2022/03/03 07:35:25;;;;;;;34.00;21.80;;;;;;;-144.19;100.00;78792.34;6159079;23;20022;-91
2022/03/03 07:37:52;;;;;;;34.85;21.35;;;;;;;-144.19;100.00;78788.38;6158609;23;20454;-89
2022/03/03 07:40:19;;;;;;;;;;;;;;;-144.19;100.00;78768.69;6135019;23;20028;-88
2022/03/03 07:42:53;;;;;;;39.22;23.15;;;;;;;-144.19;100.00;78766.72;6158630;23;19916;-89
2022/03/03 07:45:20;;;;;;;42.15;22.80;;;;;;;-144.19;100.00;78752.94;6134305;23;20493;-87
2022/03/03 07:47:50;;;;;;;;;;;;;;;-144.19;100.00;78745.06;6133016;23;20633;-88
2022/03/03 07:50:18;;;;;;;37.83;22.00;;;;;;;-144.19;100.00;78737.19;6156666;23;19916;-90
2022/03/03 07:52:50;;;;;;;34.70;23.35;;;;;;;-144.19;100.00;78725.38;6134271;23;20021;-86
2022/03/03 07:55:17;;;;;;;34.30;22.17;;;;;;;-144.19;100.00;78717.50;6132579;23;20072;-88
2022/03/03 07:57:58;;;;;;;33.28;21.52;;;;;;;-144.19;100.00;78717.50;6157130;23;20108;-86
2022/03/03 08:00:28;;;;;;;35.60;21.67;;;;;;;-144.19;100.00;78709.63;6129549;23;20028;-86
2022/03/03 08:02:59;;;;;;;34.72;23.13;;;;;;;-144.19;100.00;78707.66;6131919;23;20072;-86
2022/03/03 08:05:29;;;;;;;34.80;22.58;;;;;;;-144.19;100.00;78707.66;6157167;23;20073;-84
2022/03/03 08:07:57;;;;;;;37.38;22.73;;;;;;;-144.19;100.00;78701.72;6131198;23;20060;-88
2022/03/03 08:10:28;;;;;;;35.20;21.90;;;;;;;-144.19;100.00;78695.81;6157675;23;20029;-87
2022/03/03 08:12:58;;;;;;;38.78;22.00;;;;;;;-144.19;100.00;78709.63;6156929;23;20472;-86
2022/03/03 08:15:25;;;;;;;34.30;22.77;;;;;;;-144.19;100.00;78689.91;6155165;23;20092;-84
2022/03/03 08:17:52;;;;;;;;;;;;;;;-144.19;100.00;78678.09;6131804;23;20025;-86
2022/03/03 08:20:20;;;;;;;36.13;22.35;;;;;;;-144.19;100.00;78672.19;6156754;23;19920;-85
2022/03/03 08:22:47;;;;;;;36.05;22.48;;;;;;;-144.19;100.00;78670.22;6155548;23;20036;-84
2022/03/03 08:25:14;;;;;;;44.13;22.98;;;;;;;-144.19;100.00;78650.53;6158610;23;20032;-88
2022/03/03 08:27:41;;;;;;;39.50;24.52;;;;;;;-144.19;100.00;78640.69;6138157;23;20025;-85
2022/03/03 08:30:10;;;;;;;35.92;21.98;;;;;;;-144.19;100.00;78634.78;6134900;23;20036;-86
2022/03/03 08:32:48;;;;;;;33.85;22.38;;;;;;;-144.19;100.00;78619.03;6134048;23;20021;-86
2022/03/03 08:35:16;;;;;;;34.75;21.20;;;;;;;-144.19;100.00;78611.13;6131679;23;20629;-85
2022/03/03 08:37:49;;;;;;;37.42;21.27;;;;;;;-144.19;100.00;78599.31;6131439;23;20512;-85
2022/03/03 08:40:18;;;;;;;38.83;22.35;;;;;;;-144.19;100.00;78599.31;6154190;23;20057;-87
2022/03/03 08:42:48;;;;;;;36.97;21.60;;;;;;;-144.19;100.00;78591.44;6129755;23;20028;-85
2022/03/03 08:45:18;;;;;;;33.80;22.17;;;;;;;-144.19;100.00;78565.84;6154707;23;20863;-85
2022/03/03 08:47:57;;;;;;;31.77;21.60;;;;;;;-144.19;100.00;78563.88;6129618;23;20028;-85
2022/03/03 08:50:30;;;;;;;35.60;21.30;;;;;;;-144.19;100.00;78559.94;6129461;23;20405;-87
2022/03/03 08:52:58;;;;;;;33.78;21.65;;;;;;;-144.19;100.00;78536.31;6129976;23;20013;-83
2022/03/03 08:55:27;;;;;;;35.38;22.08;;;;;;;-144.19;100.00;78522.50;6155441;23;20041;-86
2022/03/03 08:57:53;;;;;;;36.15;21.88;;;;;;;-144.19;100.00;78512.66;6129239;23;20080;-83
2022/03/03 09:00:20;;;;;;;33.22;20.95;;;;;;;-144.19;100.00;78510.69;6128443;23;20031;-84
2022/03/03 09:02:48;;;;;;;35.17;22.88;;;;;;;-144.19;100.00;78496.91;6153624;23;20390;-86
2022/03/03 09:05:15;;;;;;;32.30;21.42;;;;;;;-144.19;100.00;78485.09;6153445;23;20026;-84
2022/03/03 09:07:41;;;;;;;35.20;22.05;;;;;;;-144.19;100.00;78473.28;6156022;23;20120;-84
2022/03/03 09:10:08;;;;;;;35.30;22.10;;;;;;;-144.19;100.00;78449.66;6129681;23;20112;-84
2022/03/03 09:12:35;;;;;;;32.97;21.58;;;;;;;-144.19;100.00;78429.97;6155472;23;20233;-84
2022/03/03 09:15:03;;;;;;;37.20;22.40;;;;;;;-144.19;100.00;78426.03;6153864;23;20018;-86
2022/03/03 09:17:31;;;;;;;31.38;21.98;;;;;;;-144.19;100.00;78398.44;6169514;23;20177;-84
2022/03/03 09:20:00;;;;;;;32.22;21.00;;;;;;;-144.19;100.00;78374.81;6164716;23;20073;-83
2022/03/03 09:22:27;;;;;;;33.92;21.08;;;;;;;-144.19;100.00;78366.94;6137137;23;20013;-84
2022/03/03 09:24:55;;;;;;;32.80;21.50;;;;;;;-144.19;100.00;78349.22;6132356;23;20036;-84
2022/03/03 09:27:22;;;;;;;29.95;21.25;;;;;;;-144.19;100.00;78331.50;6157909;23;20121;-85
2022/03/03 09:29:50;;;;;;;;;;;;;;;-144.19;100.00;78311.81;6129738;23;20025;-84
2022/03/03 09:32:17;;;;;;;32.33;21.98;;;;;;;-144.19;100.00;78292.09;6129104;23;19943;-84
2022/03/03 09:34:46;;;;;;;34.20;21.90;;;;;;;-144.19;100.00;78260.59;6130087;23;20022;-87
2022/03/03 09:37:14;;;;;;;30.55;21.98;;;;;;;-144.19;100.00;78264.53;6155903;23;20032;-86
2022/03/03 09:39:40;;;;;;;38.10;22.23;;;;;;;-144.19;100.00;78236.97;6130699;23;20032;-85
2022/03/03 09:42:10;;;;;;;33.20;21.13;;;;;;;-144.19;100.00;78227.13;6130144;23;20077;-85
2022/03/03 09:44:37;;;;;;;31.05;21.33;;;;;;;-144.19;100.00;78197.59;6153790;23;20072;-83
2022/03/03 09:47:04;;;;;;;33.63;21.65;;;;;;;-144.19;100.00;78193.66;6129071;23;20025;-85
2022/03/03 09:49:30;;;;;;;29.08;20.40;;;;;;;-144.19;100.00;78164.09;6129632;23;20096;-83
2022/03/03 09:51:57;;;;;;;33.00;20.50;;;;;;;-144.19;100.00;78122.75;6154591;23;20028;-85
2022/03/03 09:54:23;;;;;;;32.85;20.50;;;;;;;-144.19;100.00;78077.47;6157041;23;20028;-84
2022/03/03 09:56:50;;;;;;;29.37;19.77;;;;;;;-144.19;100.00;78093.22;6131077;23;20036;-87
2022/03/03 09:59:16;;;;;;;30.27;20.77;;;;;;;-144.19;100.00;78063.69;6129998;23;20031;-84
2022/03/03 10:01:45;;;;;;;30.87;19.47;;;;;;;-144.19;100.00;78024.31;6156128;23;20025;-85
2022/03/03 10:04:24;;;;;;;31.13;19.17;;;;;;;-144.19;100.00;78008.53;6155983;23;20645;-84
2022/03/03 10:06:51;;;;;;;28.48;20.13;;;;;;;-144.19;100.00;77998.69;6154958;23;20017;-85
2022/03/03 10:09:18;;;;;;;29.13;19.75;;;;;;;-144.19;100.00;77980.97;6155179;23;20021;-87
2022/03/03 10:11:47;;;;;;;28.42;20.00;;;;;;;-144.19;100.00;77953.41;6130657;23;20029;-84
2022/03/03 10:14:24;;;;;;;29.38;19.88;;;;;;;-144.19;100.00;77965.22;6129710;23;20024;-84
2022/03/03 10:16:50;;;;;;;28.27;20.15;;;;;;;-144.19;100.00;77925.84;6155764;23;20033;-86
2022/03/03 10:19:51;;;;;;;30.48;19.33;;;;;;;-144.19;100.00;77892.38;6159800;23;20018;-87
2022/03/03 10:22:17;;;;;;;28.73;18.80;;;;;;;-144.19;100.00;77898.28;6155702;23;20343;-85
2022/03/03 10:24:43;;;;;;;25.85;19.70;;;;;;;-144.19;99.88;77894.34;6130689;23;20021;-86
2022/03/03 10:27:11;;;;;;;27.45;19.70;;;;;;;-144.19;100.00;77847.09;6154991;23;20366;-86
2022/03/03 10:29:47;;;;;;;;;;;;;;;-144.19;95.61;77839.19;6158689;23;20021;-85
2022/03/03 10:32:22;;;;;;;24.60;18.40;;;;;;;-144.19;89.35;77849.06;6155050;23;19987;-83
2022/03/03 10:34:53;;;;;;;27.60;18.48;;;;;;;-144.19;88.15;77835.25;6130122;23;20093;-85
2022/03/03 10:37:23;;;;;;;26.67;17.65;;;;;;;-144.19;87.64;77725.00;6154278;23;20084;-86
2022/03/03 10:39:59;;;;;;;30.23;18.80;;;;;;;-144.19;84.16;77681.69;6129340;23;20498;-86
2022/03/03 10:42:29;;;;;;;29.92;20.02;;;;;;;-144.19;82.58;77640.34;6130267;23;20022;-85
2022/03/03 10:45:16;;;;;;;24.63;17.53;;;;;;;-144.19;80.46;77681.69;6130602;23;20100;-85
2022/03/03 10:47:45;;;;;;;27.13;17.95;;;;;;;-144.19;76.56;77654.13;6130067;23;20244;-86
2022/03/03 10:50:12;;;;;;;24.48;17.65;;;;;;;-144.19;72.76;77579.31;6155069;23;20025;-86
2022/03/03 10:52:40;;;;;;;25.52;18.25;;;;;;;-144.19;74.87;77415.88;6128927;23;20024;-86
2022/03/03 10:55:12;;;;;;;26.58;18.38;;;;;;;-144.19;68.53;77469.03;6155942;23;20056;-85
2022/03/03 10:57:45;;;;;;;28.17;18.80;;;;;;;-144.19;72.68;77409.97;6155472;23;20022;-87
2022/03/03 11:00:15;;;;;;;24.08;18.15;;;;;;;-144.19;71.98;77394.22;6129580;23;20025;-85